Time;durP1;ratioP1;P1;durP2;ratioP2;P2;SDS_P1;SDS_P2;PMS_P1;PMS_P2;Temp;Humidity;BMP_temperature;BMP_pressure;BME280_temperature;BME280_humidity;BME280_pressure;Samples;Min_cycle;Max_cycle;Signal;HPM_P1;HPM_P2
2024/03/06 05:02:39;;;;;;;5.00;4.57;;;0.80;99.90;;;;;;4942717;28;20277;-72
2024/03/06 05:05:06;;;;;;;7.07;4.82;;;0.80;99.90;;;;;;4941550;28;20206;-71
2024/03/06 05:07:33;;;;;;;4.63;3.60;;;0.80;99.90;;;;;;4950452;28;20273;-71
2024/03/06 05:10:00;;;;;;;5.07;4.25;;;0.80;99.90;;;;;;4951693;28;20217;-70
2024/03/06 05:12:28;;;;;;;7.32;4.32;;;0.80;99.90;;;;;;4951315;28;20232;-71
2024/03/06 05:14:56;;;;;;;8.20;3.30;;;0.80;99.90;;;;;;4950433;29;20294;-71
2024/03/06 05:17:23;;;;;;;7.07;5.60;;;0.80;99.90;;;;;;4951920;28;20209;-71
2024/03/06 05:19:51;;;;;;;4.57;4.13;;;0.80;99.90;;;;;;4951379;28;20212;-71
2024/03/06 05:22:18;;;;;;;5.57;5.00;;;0.80;99.90;;;;;;4951491;28;20229;-71
2024/03/06 05:24:45;;;;;;;4.47;3.85;;;0.80;99.90;;;;;;4949358;28;20213;-72
2024/03/06 05:27:13;;;;;;;9.52;5.30;;;0.70;99.90;;;;;;4948035;28;20583;-71
2024/03/06 05:29:40;;;;;;;19.60;3.95;;;0.70;99.90;;;;;;4946370;29;20296;-71
2024/03/06 05:32:07;;;;;;;4.50;3.20;;;0.70;99.90;;;;;;4951255;28;20229;-71
2024/03/06 05:34:34;;;;;;;3.65;3.45;;;0.70;99.90;;;;;;4950975;28;20201;-70
2024/03/06 05:37:04;;;;;;;6.80;4.60;;;0.70;99.90;;;;;;4951918;28;20359;-70
2024/03/06 05:39:31;;;;;;;5.22;4.78;;;0.70;99.90;;;;;;4951756;28;20220;-70
2024/03/06 05:42:02;;;;;;;10.30;5.05;;;0.60;99.90;;;;;;4950843;28;20244;-70
2024/03/06 05:44:29;;;;;;;7.30;4.30;;;0.70;99.90;;;;;;4949154;29;20607;-71
2024/03/06 05:46:56;;;;;;;5.57;3.85;;;0.70;99.90;;;;;;4952335;28;20264;-71
2024/03/06 05:49:23;;;;;;;8.57;6.93;;;0.70;99.90;;;;;;4955479;28;20245;-71
2024/03/06 05:51:49;;;;;;;5.93;4.25;;;0.60;99.90;;;;;;4955017;28;20225;-70
2024/03/06 05:54:19;;;;;;;9.10;4.88;;;0.60;99.90;;;;;;4955522;28;20213;-70
2024/03/06 05:56:45;;;;;;;8.98;4.47;;;0.60;99.90;;;;;;4954261;28;20268;-71
2024/03/06 05:59:13;;;;;;;7.13;4.30;;;0.60;99.90;;;;;;4955735;28;20742;-73
2024/03/06 06:01:40;;;;;;;8.88;5.32;;;0.60;99.90;;;;;;4951737;28;20249;-72
2024/03/06 06:04:06;;;;;;;7.97;5.55;;;0.60;99.90;;;;;;4955037;28;20277;-71
2024/03/06 06:06:33;;;;;;;5.50;4.45;;;0.60;99.90;;;;;;4955431;28;20316;-71
2024/03/06 06:09:00;;;;;;;11.40;3.92;;;0.60;99.90;;;;;;4950590;28;20209;-71
2024/03/06 06:11:28;;;;;;;12.40;7.00;;;0.70;99.90;;;;;;4953116;28;20319;-71
2024/03/06 06:13:54;;;;;;;4.47;3.78;;;0.70;99.90;;;;;;4954022;28;20228;-71
2024/03/06 06:16:21;;;;;;;6.93;5.47;;;0.70;99.90;;;;;;4948702;28;20217;-69
2024/03/06 06:18:48;;;;;;;8.40;4.00;;;0.70;99.90;;;;;;4953298;28;20217;-70
2024/03/06 06:21:16;;;;;;;4.93;3.83;;;0.80;99.90;;;;;;4954007;28;20233;-70
2024/03/06 06:23:42;;;;;;;10.43;4.90;;;0.80;99.90;;;;;;4948128;28;20315;-69
2024/03/06 06:26:10;;;;;;;10.95;6.57;;;0.90;99.90;;;;;;4952915;28;20209;-69
2024/03/06 06:28:38;;;;;;;10.05;5.75;;;1.00;99.90;;;;;;4949989;28;20216;-70
2024/03/06 06:31:05;;;;;;;9.13;4.20;;;1.00;99.90;;;;;;4942403;29;20230;-70
2024/03/06 06:33:31;;;;;;;8.45;6.53;;;1.00;99.90;;;;;;4945677;28;20221;-70
2024/03/06 06:35:58;;;;;;;9.75;4.95;;;1.00;99.90;;;;;;4954006;28;20217;-70
2024/03/06 06:38:25;;;;;;;8.50;6.15;;;1.10;99.90;;;;;;4951372;29;20214;-70
2024/03/06 06:40:52;;;;;;;6.45;4.65;;;1.20;99.90;;;;;;4953842;28;20623;-70
2024/03/06 06:43:19;;;;;;;11.43;6.53;;;1.20;99.90;;;;;;4952653;28;20316;-70
2024/03/06 06:45:47;;;;;;;6.35;3.88;;;1.30;99.90;;;;;;4946199;28;20224;-70
2024/03/06 06:48:14;;;;;;;6.20;5.53;;;1.40;99.90;;;;;;4942946;28;20224;-70
2024/03/06 06:50:41;;;;;;;10.35;6.10;;;1.40;99.90;;;;;;4950618;28;20229;-69
2024/03/06 06:53:07;;;;;;;7.85;6.22;;;1.50;99.90;;;;;;4947491;29;20218;-70
2024/03/06 06:55:36;;;;;;;5.95;5.10;;;1.60;99.90;;;;;;4942996;28;20290;-70
2024/03/06 06:58:02;;;;;;;11.82;6.57;;;1.70;99.90;;;;;;4950350;28;20525;-70
2024/03/06 07:00:30;;;;;;;6.68;5.57;;;1.70;99.90;;;;;;4950911;28;20216;-69
2024/03/06 07:02:58;;;;;;;8.52;4.93;;;1.80;99.90;;;;;;4952253;28;20218;-70
2024/03/06 07:05:26;;;;;;;5.60;4.60;;;1.80;99.90;;;;;;4942965;29;20248;-69
2024/03/06 07:07:53;;;;;;;11.52;4.78;;;1.90;99.90;;;;;;4953111;29;20555;-70
2024/03/06 07:10:20;;;;;;;7.30;5.45;;;2.00;99.90;;;;;;4948959;28;20248;-70
2024/03/06 07:12:47;;;;;;;24.08;7.40;;;2.00;99.90;;;;;;4949272;29;20213;-70
2024/03/06 07:15:13;;;;;;;8.60;6.13;;;2.10;99.90;;;;;;4951458;28;20221;-70
2024/03/06 07:17:40;;;;;;;6.55;5.85;;;2.20;99.90;;;;;;4952000;28;20311;-70
2024/03/06 07:20:10;;;;;;;10.25;6.30;;;2.20;99.90;;;;;;4952584;28;20213;-70
2024/03/06 07:22:36;;;;;;;6.40;5.57;;;2.30;99.90;;;;;;4949484;28;20226;-70
2024/03/06 07:25:05;;;;;;;6.80;6.07;;;2.40;99.90;;;;;;4949870;28;20680;-70
2024/03/06 07:27:32;;;;;;;8.15;5.88;;;2.50;99.90;;;;;;4950327;29;20231;-70
2024/03/06 07:29:59;;;;;;;8.18;5.90;;;2.60;99.90;;;;;;4949427;28;20217;-70
2024/03/06 07:32:26;;;;;;;10.55;8.00;;;2.60;99.90;;;;;;4949374;28;20218;-70
2024/03/06 07:34:52;;;;;;;6.35;5.65;;;2.70;99.90;;;;;;4947843;28;20613;-70
2024/03/06 07:37:21;;;;;;;4.90;4.38;;;2.80;99.90;;;;;;4942986;28;20268;-70
2024/03/06 07:39:48;;;;;;;8.13;6.93;;;2.80;99.90;;;;;;4946807;29;20307;-70
2024/03/06 07:42:15;;;;;;;10.85;5.60;;;2.90;99.90;;;;;;4950483;28;20231;-69
2024/03/06 07:44:42;;;;;;;7.97;6.13;;;2.90;99.90;;;;;;4951696;28;20216;-70
2024/03/06 07:47:08;;;;;;;7.82;4.78;;;3.00;99.90;;;;;;4949772;28;20703;-71
2024/03/06 07:49:35;;;;;;;6.93;5.95;;;3.10;99.90;;;;;;4950488;29;20220;-69
2024/03/06 07:52:02;;;;;;;6.72;6.20;;;3.20;99.90;;;;;;4938158;28;20289;-69
2024/03/06 07:54:30;;;;;;;6.70;5.28;;;3.20;99.90;;;;;;4944158;28;20208;-70
2024/03/06 07:56:57;;;;;;;8.60;6.43;;;3.20;99.90;;;;;;4945311;29;20211;-69
2024/03/06 07:59:23;;;;;;;9.95;4.82;;;3.40;99.90;;;;;;4943641;28;20207;-69
2024/03/06 08:01:50;;;;;;;11.00;6.13;;;3.50;99.90;;;;;;4941627;28;20238;-70
2024/03/06 08:04:17;;;;;;;7.68;6.20;;;3.60;99.90;;;;;;4942659;29;20294;-69
2024/03/06 08:06:44;;;;;;;9.70;6.45;;;3.60;99.90;;;;;;4942371;29;20214;-69
2024/03/06 08:09:11;;;;;;;12.48;8.13;;;3.70;99.90;;;;;;4941621;28;20212;-69
2024/03/06 08:11:39;;;;;;;12.48;7.10;;;3.70;99.90;;;;;;4942917;28;20228;-70
2024/03/06 08:14:07;;;;;;;9.02;4.35;;;3.80;99.90;;;;;;4941992;29;20212;-70
2024/03/06 08:16:34;;;;;;;8.90;5.93;;;3.90;99.90;;;;;;4943682;29;20210;-71
2024/03/06 08:19:01;;;;;;;10.90;6.43;;;4.00;99.90;;;;;;4941299;29;20464;-70
2024/03/06 08:21:28;;;;;;;7.85;5.00;;;4.10;99.90;;;;;;4946511;29;20237;-70
2024/03/06 08:23:54;;;;;;;8.02;6.45;;;4.10;99.90;;;;;;4948822;28;20236;-70
2024/03/06 08:26:23;;;;;;;5.43;5.03;;;4.20;99.90;;;;;;4952828;28;20207;-70
2024/03/06 08:28:52;;;;;;;13.30;7.47;;;4.30;99.90;;;;;;4950502;28;20646;-70
2024/03/06 08:31:21;;;;;;;8.30;6.00;;;4.30;99.90;;;;;;4949908;28;20287;-70
2024/03/06 08:33:48;;;;;;;8.45;6.32;;;4.30;99.90;;;;;;4948641;28;20213;-70
2024/03/06 08:36:14;;;;;;;8.13;7.13;;;4.40;99.90;;;;;;4946303;29;20212;-70
2024/03/06 08:38:41;;;;;;;6.40;4.13;;;4.40;99.90;;;;;;4944100;28;20204;-70
2024/03/06 08:41:08;;;;;;;7.82;5.70;;;4.40;99.90;;;;;;4944596;29;20263;-70
2024/03/06 08:43:34;;;;;;;11.52;6.55;;;4.40;99.90;;;;;;4943006;29;20231;-70
2024/03/06 08:46:03;;;;;;;7.28;4.63;;;4.50;99.90;;;;;;4943391;28;20279;-70
2024/03/06 08:48:29;;;;;;;13.57;7.68;;;4.50;99.90;;;;;;4946200;28;20206;-69
2024/03/06 08:50:56;;;;;;;6.55;5.70;;;4.60;99.90;;;;;;4944623;28;20240;-69
2024/03/06 08:53:23;;;;;;;16.58;10.30;;;4.70;99.90;;;;;;4944132;29;20598;-69
2024/03/06 08:55:50;;;;;;;9.30;7.80;;;4.80;99.90;;;;;;4950513;29;20665;-69
2024/03/06 08:58:16;;;;;;;6.05;5.53;;;4.80;99.90;;;;;;4946287;28;20209;-69
2024/03/06 09:00:43;;;;;;;10.27;3.78;;;4.80;99.90;;;;;;4946897;29;20312;-69
2024/03/06 09:03:11;;;;;;;4.13;3.90;;;4.80;99.90;;;;;;4953054;28;20311;-69
2024/03/06 09:05:38;;;;;;;4.10;3.80;;;4.90;99.90;;;;;;4958864;29;20213;-70
2024/03/06 09:08:05;;;;;;;13.15;6.55;;;5.00;99.90;;;;;;4956570;29;20773;-70
2024/03/06 09:10:33;;;;;;;9.60;6.18;;;5.00;99.90;;;;;;4959606;28;20248;-69
2024/03/06 09:13:00;;;;;;;3.33;3.05;;;5.00;99.90;;;;;;4959034;28;20236;-69
2024/03/06 09:15:26;;;;;;;7.53;6.68;;;5.10;99.90;;;;;;4962144;29;20206;-69
2024/03/06 09:17:53;;;;;;;7.18;6.15;;;5.10;99.90;;;;;;4956362;29;20213;-69
2024/03/06 09:20:24;;;;;;;6.28;4.38;;;5.10;99.90;;;;;;4955530;28;20228;-70
2024/03/06 09:22:54;;;;;;;12.10;6.35;;;5.20;99.90;;;;;;4957614;28;20255;-69
2024/03/06 09:25:20;;;;;;;7.03;5.63;;;5.20;99.90;;;;;;4959113;28;20236;-70
2024/03/06 09:27:47;;;;;;;8.25;6.93;;;5.30;99.90;;;;;;4959890;29;20219;-69
2024/03/06 09:30:15;;;;;;;7.85;6.15;;;5.30;99.90;;;;;;4958570;29;20216;-69
2024/03/06 09:32:44;;;;;;;20.90;6.82;;;5.30;99.90;;;;;;4956962;28;20216;-70
2024/03/06 09:35:10;;;;;;;10.70;6.80;;;5.30;99.90;;;;;;4954742;28;20210;-70
2024/03/06 09:37:38;;;;;;;8.90;5.30;;;5.30;99.90;;;;;;4954344;28;20209;-70
2024/03/06 09:40:07;;;;;;;9.70;7.25;;;5.30;99.90;;;;;;4946932;28;20221;-69
2024/03/06 09:42:34;;;;;;;8.50;5.35;;;5.40;99.90;;;;;;4941237;28;20230;-70
2024/03/06 09:45:02;;;;;;;11.77;6.10;;;5.40;99.90;;;;;;4944057;29;20208;-70
2024/03/06 09:47:33;;;;;;;8.10;4.68;;;5.50;99.90;;;;;;4941795;29;20241;-70
2024/03/06 09:50:02;;;;;;;7.95;6.65;;;5.50;99.90;;;;;;4941421;29;20210;-71
2024/03/06 09:52:30;;;;;;;11.75;5.75;;;5.60;99.90;;;;;;4941232;29;20274;-69
2024/03/06 09:54:59;;;;;;;11.05;6.63;;;5.60;99.90;;;;;;4942231;29;20251;-70
2024/03/06 09:57:25;;;;;;;5.72;5.13;;;5.60;99.90;;;;;;4942814;29;20214;-70
2024/03/06 09:59:52;;;;;;;8.32;4.47;;;5.60;99.90;;;;;;4941243;28;20210;-70
2024/03/06 10:02:31;;;;;;;10.80;7.93;;;5.70;99.90;;;;;;4938885;29;20320;-70
2024/03/06 10:04:57;;;;;;;11.70;3.92;;;5.80;99.90;;;;;;4941428;29;20224;-70
2024/03/06 10:07:26;;;;;;;17.27;6.65;;;5.80;99.90;;;;;;4944229;28;20213;-69
2024/03/06 10:09:53;;;;;;;6.30;3.95;;;5.90;99.90;;;;;;4940570;29;20239;-70
2024/03/06 10:12:22;;;;;;;8.82;5.63;;;5.90;99.90;;;;;;4942211;28;20243;-70
2024/03/06 10:14:52;;;;;;;10.43;6.65;;;6.00;99.90;;;;;;4942527;29;20556;-70
2024/03/06 10:18:28;;;;;;;6.38;5.60;;;6.10;99.90;;;;;;5128282;27;20568;-70
2024/03/06 10:20:55;;;;;;;7.60;5.88;;;6.10;99.90;;;;;;5122377;27;20222;-70
2024/03/06 10:23:21;;;;;;;4.88;4.43;;;6.20;99.90;;;;;;5123500;27;20202;-69
2024/03/06 10:25:52;;;;;;;12.07;7.35;;;6.30;99.90;;;;;;5126471;27;20231;-69
2024/03/06 10:28:19;;;;;;;7.63;6.00;;;6.30;99.90;;;;;;5122846;28;20206;-69
2024/03/06 10:30:46;;;;;;;9.93;6.13;;;6.50;99.90;;;;;;5124707;28;20233;-69
2024/03/06 10:33:14;;;;;;;10.63;5.25;;;6.50;99.90;;;;;;5121162;28;20641;-70
2024/03/06 10:35:43;;;;;;;8.93;6.50;;;6.60;99.90;;;;;;5120612;27;20200;-70
2024/03/06 10:38:11;;;;;;;19.80;9.18;;;6.60;99.90;;;;;;5125662;27;20238;-70
2024/03/06 10:40:39;;;;;;;10.73;5.72;;;6.70;99.90;;;;;;5122539;28;20377;-70
2024/03/06 10:43:08;;;;;;;10.18;6.85;;;6.80;99.90;;;;;;5127308;28;20202;-71
2024/03/06 10:45:47;;;;;;;11.20;7.97;;;6.80;99.90;;;;;;5129186;27;20209;-68
2024/03/06 10:48:14;;;;;;;11.38;6.85;;;6.90;99.90;;;;;;5128508;28;20292;-72
2024/03/06 10:50:44;;;;;;;6.40;4.63;;;7.10;99.90;;;;;;5129702;27;20244;-71
2024/03/06 10:54:08;;;;;;;7.00;4.72;;;7.30;99.90;;;;;;5137989;27;20570;-71
2024/03/06 10:56:35;;;;;;;10.00;6.70;;;7.30;99.90;;;;;;5117164;28;20210;-69
2024/03/06 10:59:03;;;;;;;9.00;5.80;;;7.30;99.90;;;;;;5120230;28;20543;-69
2024/03/06 11:01:32;;;;;;;9.50;7.15;;;7.30;99.90;;;;;;5116981;28;20295;-70
2024/03/06 11:04:01;;;;;;;8.38;6.07;;;7.30;99.90;;;;;;5117915;28;20218;-70
2024/03/06 11:06:28;;;;;;;14.35;7.82;;;7.40;99.90;;;;;;5106094;28;20218;-70
2024/03/06 11:08:54;;;;;;;7.35;5.30;;;7.50;99.90;;;;;;5107416;28;20222;-72
2024/03/06 11:11:24;;;;;;;9.02;6.57;;;7.50;99.90;;;;;;5105685;28;20224;-73
2024/03/06 11:13:51;;;;;;;7.45;4.40;;;7.50;99.90;;;;;;5109100;28;20284;-72
2024/03/06 11:16:18;;;;;;;7.50;5.35;;;7.60;99.90;;;;;;5107574;28;20204;-72
2024/03/06 11:18:46;;;;;;;7.70;4.95;;;7.70;99.90;;;;;;5111661;28;20737;-70
2024/03/06 11:21:30;;;;;;;8.40;7.35;;;7.70;99.90;;;;;;5112217;28;20235;-71
2024/03/06 11:24:16;;;;;;;9.90;8.10;;;7.80;99.90;;;;;;5113513;28;20208;-72
2024/03/06 11:26:49;;;;;;;8.00;6.72;;;7.80;99.90;;;;;;5115498;28;20264;-71
2024/03/06 11:29:20;;;;;;;7.22;5.40;;;7.80;99.90;;;;;;5112315;28;20223;-71
2024/03/06 11:32:08;;;;;;;18.98;7.95;;;7.80;99.90;;;;;;5102657;28;20220;-71
2024/03/06 11:34:35;;;;;;;9.88;5.60;;;7.80;99.90;;;;;;5111469;28;20689;-69
2024/03/06 11:37:07;;;;;;;9.80;5.55;;;7.80;99.90;;;;;;5113443;28;20203;-67
2024/03/06 11:39:36;;;;;;;8.57;5.30;;;7.80;99.90;;;;;;5117793;28;20211;-69
2024/03/06 11:42:08;;;;;;;10.85;5.18;;;7.80;99.90;;;;;;5105577;28;20242;-71
2024/03/06 11:44:35;;;;;;;9.60;6.38;;;7.70;99.90;;;;;;5111752;28;20204;-69
2024/03/06 11:47:04;;;;;;;9.35;6.13;;;7.80;99.90;;;;;;5116270;28;20207;-68
2024/03/06 11:49:33;;;;;;;12.57;7.70;;;7.90;99.90;;;;;;5112826;28;20213;-70
2024/03/06 11:52:02;;;;;;;11.00;6.13;;;7.90;99.90;;;;;;5102717;28;20242;-71
2024/03/06 11:54:29;;;;;;;8.70;6.70;;;7.90;99.90;;;;;;5024856;28;20211;-69
2024/03/06 11:56:57;;;;;;;7.07;5.57;;;8.10;99.90;;;;;;5025463;28;20230;-70
2024/03/06 11:59:26;;;;;;;8.50;6.03;;;8.40;99.90;;;;;;5022922;28;20290;-71
2024/03/06 12:01:54;;;;;;;7.90;5.10;;;8.50;99.90;;;;;;5028346;28;20226;-70
2024/03/06 12:04:22;;;;;;;5.82;5.30;;;8.70;99.90;;;;;;5019268;28;20265;-70
2024/03/06 12:06:49;;;;;;;5.82;5.05;;;8.70;99.90;;;;;;5011807;28;20211;-70
2024/03/06 12:09:16;;;;;;;7.88;5.65;;;8.70;99.90;;;;;;5014553;28;20299;-71
2024/03/06 12:11:44;;;;;;;8.80;6.13;;;8.60;99.90;;;;;;5015015;28;20231;-71
2024/03/06 12:14:16;;;;;;;10.35;6.65;;;8.50;99.90;;;;;;5016931;28;20223;-69
2024/03/06 12:16:44;;;;;;;5.63;5.10;;;8.50;99.90;;;;;;5007169;28;20211;-71
2024/03/06 12:19:11;;;;;;;6.00;4.68;;;8.50;99.90;;;;;;5000030;28;20267;-70
2024/03/06 12:21:40;;;;;;;6.43;5.15;;;8.50;99.90;;;;;;5008216;28;20231;-64
2024/03/06 12:24:08;;;;;;;6.15;4.90;;;8.50;99.90;;;;;;5006312;28;20618;-70
2024/03/06 12:26:36;;;;;;;7.38;6.63;;;8.60;99.90;;;;;;5008794;28;20210;-70
2024/03/06 12:29:06;;;;;;;8.00;6.85;;;8.60;99.90;;;;;;5009491;28;21125;-69
2024/03/06 12:31:35;;;;;;;6.35;4.88;;;8.70;99.90;;;;;;5043296;28;20280;-69
2024/03/06 12:34:03;;;;;;;7.10;6.18;;;8.90;99.90;;;;;;5010582;28;20231;-70
2024/03/06 12:36:31;;;;;;;10.07;6.28;;;8.90;99.90;;;;;;5022292;28;20204;-70
2024/03/06 12:38:59;;;;;;;9.45;4.82;;;8.80;99.90;;;;;;5001631;28;20581;-70
2024/03/06 12:41:27;;;;;;;9.23;5.82;;;8.80;99.90;;;;;;5005259;28;20223;-71
2024/03/06 12:43:54;;;;;;;7.05;5.65;;;8.70;99.90;;;;;;5007023;28;20700;-68
2024/03/06 12:46:21;;;;;;;8.65;6.20;;;8.70;99.90;;;;;;5023544;28;20758;-69
2024/03/06 12:48:48;;;;;;;5.63;5.07;;;8.70;99.90;;;;;;5018942;28;20204;-69
2024/03/06 12:51:16;;;;;;;7.95;5.60;;;8.70;99.90;;;;;;5023140;28;20595;-69
2024/03/06 12:53:43;;;;;;;8.40;5.07;;;8.60;99.90;;;;;;5025577;28;20222;-70
2024/03/06 12:56:10;;;;;;;8.38;5.82;;;8.60;99.90;;;;;;5020328;28;20215;-69
2024/03/06 12:58:37;;;;;;;16.88;5.70;;;8.50;99.90;;;;;;5020468;28;20268;-69
2024/03/06 13:01:04;;;;;;;7.80;5.32;;;8.40;99.90;;;;;;5006721;28;20722;-71
2024/03/06 13:03:32;;;;;;;8.32;6.43;;;8.40;99.90;;;;;;5009906;28;20209;-70
2024/03/06 13:05:59;;;;;;;10.82;6.55;;;8.30;99.90;;;;;;5022253;28;20218;-70
2024/03/06 13:08:27;;;;;;;4.75;4.25;;;8.10;99.90;;;;;;5006254;28;20206;-71
2024/03/06 13:10:54;;;;;;;8.52;6.07;;;8.10;99.90;;;;;;5023176;28;20716;-70
2024/03/06 13:13:21;;;;;;;7.88;5.80;;;8.10;99.90;;;;;;5023507;28;20230;-70
2024/03/06 13:15:50;;;;;;;4.95;4.55;;;8.10;99.90;;;;;;5021474;28;20204;-71
2024/03/06 13:18:17;;;;;;;7.60;6.45;;;8.20;99.90;;;;;;5015499;28;20620;-70
2024/03/06 13:20:44;;;;;;;10.05;6.07;;;8.40;99.90;;;;;;5006704;28;20220;-70
2024/03/06 13:23:11;;;;;;;6.05;5.28;;;8.40;99.90;;;;;;5007216;28;20211;-71
2024/03/06 13:25:39;;;;;;;7.70;5.80;;;8.40;99.90;;;;;;5007532;28;20730;-70
2024/03/06 13:28:06;;;;;;;9.85;6.78;;;8.50;99.90;;;;;;5018175;28;20211;-70
2024/03/06 13:30:33;;;;;;;6.22;5.15;;;8.50;99.90;;;;;;5024123;28;20744;-69
2024/03/06 13:33:00;;;;;;;6.38;4.97;;;8.50;99.90;;;;;;5021518;28;20223;-69
2024/03/06 13:35:28;;;;;;;8.68;4.95;;;8.50;99.90;;;;;;5009628;28;20668;-68
2024/03/06 13:37:55;;;;;;;11.25;7.00;;;8.60;99.90;;;;;;5016867;28;20621;-69
2024/03/06 13:40:22;;;;;;;6.78;5.55;;;8.70;99.90;;;;;;5023906;28;20545;-68
2024/03/06 13:42:50;;;;;;;5.63;5.13;;;8.70;99.90;;;;;;5013884;28;20206;-71
2024/03/06 13:45:17;;;;;;;7.78;5.97;;;8.70;99.90;;;;;;5024085;28;20208;-71
2024/03/06 13:47:44;;;;;;;9.02;5.65;;;8.70;99.90;;;;;;5021275;28;20627;-68
2024/03/06 13:50:13;;;;;;;10.20;6.70;;;8.70;99.90;;;;;;5018044;28;20230;-71
2024/03/06 13:52:40;;;;;;;6.82;6.22;;;8.90;99.90;;;;;;5023741;28;20210;-70
2024/03/06 13:55:08;;;;;;;9.05;6.53;;;8.90;99.90;;;;;;5022787;28;20214;-70
2024/03/06 13:57:35;;;;;;;10.43;6.03;;;8.90;99.90;;;;;;5018359;28;20203;-70
2024/03/06 14:00:05;;;;;;;6.57;4.95;;;8.90;99.90;;;;;;5001154;28;20224;-70
2024/03/06 14:02:31;;;;;;;8.38;6.47;;;8.90;99.90;;;;;;5013512;28;20537;-70
2024/03/06 14:04:58;;;;;;;8.98;5.07;;;8.80;99.90;;;;;;5003014;28;20212;-69
2024/03/06 14:07:25;;;;;;;6.57;5.05;;;8.70;99.90;;;;;;5002612;28;20215;-70
2024/03/06 14:09:52;;;;;;;6.75;4.68;;;8.60;99.90;;;;;;5005858;28;20200;-70
2024/03/06 14:12:18;;;;;;;10.45;5.57;;;8.60;99.90;;;;;;5003274;28;20227;-70
2024/03/06 14:14:46;;;;;;;7.45;5.07;;;8.60;99.90;;;;;;5007581;28;20286;-69
2024/03/06 14:17:14;;;;;;;5.50;5.00;;;8.50;99.90;;;;;;5005327;28;20246;-70
2024/03/06 14:19:41;;;;;;;7.75;5.05;;;8.50;99.90;;;;;;5006652;28;20216;-69
2024/03/06 14:22:08;;;;;;;5.28;4.68;;;8.40;99.90;;;;;;5003533;28;20299;-69
2024/03/06 14:24:35;;;;;;;8.05;5.72;;;8.30;99.90;;;;;;5004837;28;20199;-69
2024/03/06 14:27:02;;;;;;;5.60;5.10;;;8.30;99.90;;;;;;5006351;28;20208;-68
2024/03/06 14:29:29;;;;;;;8.18;4.93;;;8.30;99.90;;;;;;5004273;28;20583;-68
2024/03/06 14:31:56;;;;;;;4.55;3.85;;;8.30;99.90;;;;;;5003465;28;20242;-69
2024/03/06 14:34:24;;;;;;;6.13;5.63;;;8.40;99.90;;;;;;5012920;28;20331;-69
2024/03/06 14:36:51;;;;;;;5.05;4.60;;;8.40;99.90;;;;;;5005304;28;20211;-68
2024/03/06 14:39:18;;;;;;;10.32;5.40;;;8.40;99.90;;;;;;5005816;28;20222;-69
2024/03/06 14:41:46;;;;;;;8.02;6.63;;;8.40;99.90;;;;;;5004733;28;20234;-69
2024/03/06 14:44:14;;;;;;;8.52;6.22;;;8.40;99.90;;;;;;5005380;28;20203;-70
2024/03/06 14:46:41;;;;;;;6.20;4.57;;;8.50;99.90;;;;;;5004680;28;20578;-69
2024/03/06 14:49:08;;;;;;;5.50;5.00;;;8.60;99.90;;;;;;5003904;28;20203;-69
2024/03/06 14:51:36;;;;;;;4.35;4.05;;;8.60;99.90;;;;;;5004240;28;20227;-70
2024/03/06 14:54:03;;;;;;;5.70;4.78;;;8.50;99.90;;;;;;5000914;28;20708;-70
2024/03/06 14:56:30;;;;;;;8.00;5.07;;;8.50;99.90;;;;;;5007750;28;20256;-69
2024/03/06 14:58:57;;;;;;;4.75;4.03;;;8.40;99.90;;;;;;5005870;28;20214;-69
2024/03/06 15:01:25;;;;;;;4.22;3.80;;;8.40;99.90;;;;;;5003878;28;20607;-69
2024/03/06 15:03:51;;;;;;;4.45;3.90;;;8.30;99.90;;;;;;5006031;28;20711;-69
2024/03/06 15:06:18;;;;;;;4.25;3.90;;;8.20;99.90;;;;;;5006477;28;20729;-69
2024/03/06 15:08:47;;;;;;;7.35;4.30;;;8.20;99.90;;;;;;5005718;28;20211;-69
2024/03/06 15:11:13;;;;;;;6.75;5.13;;;8.20;99.90;;;;;;5007606;28;20701;-70
2024/03/06 15:13:40;;;;;;;3.97;3.67;;;8.20;99.90;;;;;;5006439;28;20227;-69
2024/03/06 15:16:08;;;;;;;8.85;6.05;;;8.20;99.90;;;;;;5003407;28;20633;-69
2024/03/06 15:18:35;;;;;;;6.85;4.30;;;8.20;99.90;;;;;;5004628;28;20626;-69
2024/03/06 15:21:01;;;;;;;5.97;4.15;;;8.20;99.90;;;;;;5005693;28;20227;-69
2024/03/06 15:23:28;;;;;;;5.80;5.25;;;8.20;99.90;;;;;;5003914;28;20555;-69
2024/03/06 15:25:56;;;;;;;4.03;3.67;;;8.20;99.90;;;;;;5003197;28;20204;-69
2024/03/06 15:28:23;;;;;;;5.70;4.60;;;8.30;99.90;;;;;;5005047;28;20200;-70
2024/03/06 15:30:50;;;;;;;5.57;4.13;;;8.30;99.90;;;;;;5004478;28;20610;-69
2024/03/06 15:33:18;;;;;;;8.07;4.20;;;8.30;99.90;;;;;;5003339;28;20260;-70
2024/03/06 15:35:45;;;;;;;8.80;5.07;;;8.20;99.90;;;;;;5005626;28;20203;-69
2024/03/06 15:38:12;;;;;;;5.22;3.83;;;8.20;99.90;;;;;;5005129;28;20655;-69
2024/03/06 15:40:40;;;;;;;5.82;5.00;;;8.10;99.90;;;;;;5007423;28;20247;-69
2024/03/06 15:43:09;;;;;;;7.78;5.57;;;8.10;99.90;;;;;;5007212;28;20211;-70
2024/03/06 15:45:36;;;;;;;6.95;4.03;;;8.00;99.90;;;;;;5008297;28;20227;-70
2024/03/06 15:48:02;;;;;;;4.13;3.63;;;7.90;99.90;;;;;;5007913;28;20693;-70
2024/03/06 15:50:29;;;;;;;6.45;5.82;;;7.80;99.90;;;;;;5009335;28;20215;-69
2024/03/06 15:52:56;;;;;;;3.78;3.28;;;7.70;99.90;;;;;;5008712;28;20831;-69
2024/03/06 15:55:23;;;;;;;5.38;3.33;;;7.70;99.90;;;;;;5008817;28;20225;-70
2024/03/06 15:57:49;;;;;;;9.32;3.85;;;7.60;99.90;;;;;;5007063;28;20207;-70
2024/03/06 16:00:18;;;;;;;3.90;3.45;;;7.50;99.90;;;;;;5008728;28;20212;-70
2024/03/06 16:02:45;;;;;;;4.90;4.57;;;7.50;99.90;;;;;;5008205;28;20207;-70
2024/03/06 16:05:11;;;;;;;5.28;4.88;;;7.40;99.90;;;;;;5007380;28;20217;-70
2024/03/06 16:07:39;;;;;;;6.43;5.22;;;7.30;99.90;;;;;;5007445;28;20206;-70
2024/03/06 16:10:06;;;;;;;6.32;5.07;;;7.30;99.90;;;;;;5009258;28;20208;-70
2024/03/06 16:12:34;;;;;;;4.50;3.63;;;7.20;99.90;;;;;;5008169;28;20336;-70
2024/03/06 16:15:00;;;;;;;6.85;3.75;;;7.20;99.90;;;;;;5009401;28;20229;-70
2024/03/06 16:17:29;;;;;;;6.38;5.00;;;7.20;99.90;;;;;;5009538;28;20213;-70
2024/03/06 16:19:56;;;;;;;8.48;4.80;;;7.10;99.90;;;;;;5006441;28;20684;-69
2024/03/06 16:22:23;;;;;;;5.28;3.42;;;7.10;99.90;;;;;;5007942;28;20232;-70
2024/03/06 16:24:51;;;;;;;3.05;2.88;;;7.10;99.90;;;;;;5007517;28;20255;-70
2024/03/06 16:27:18;;;;;;;7.03;3.53;;;7.00;99.90;;;;;;5007324;28;20210;-68
2024/03/06 16:29:45;;;;;;;4.15;3.63;;;7.00;99.90;;;;;;5007725;28;20213;-68
2024/03/06 16:32:12;;;;;;;3.70;3.40;;;6.90;99.90;;;;;;5006378;28;20226;-69
2024/03/06 16:34:40;;;;;;;5.90;4.20;;;6.90;99.90;;;;;;5005581;28;20597;-68
2024/03/06 16:37:07;;;;;;;2.50;2.30;;;6.90;99.90;;;;;;5008677;28;20207;-68
2024/03/06 16:39:34;;;;;;;2.67;2.47;;;6.90;99.90;;;;;;5007269;28;20230;-69
2024/03/06 16:42:01;;;;;;;4.03;3.72;;;6.80;99.90;;;;;;5005926;28;20303;-69
2024/03/06 16:44:27;;;;;;;4.40;2.55;;;6.80;99.90;;;;;;5005480;28;20222;-69
2024/03/06 16:46:55;;;;;;;3.05;2.90;;;6.70;99.90;;;;;;5006675;28;20666;-69
2024/03/06 16:49:21;;;;;;;3.60;3.38;;;6.60;99.90;;;;;;5007065;28;20243;-70
2024/03/06 16:51:49;;;;;;;8.13;3.33;;;6.60;99.90;;;;;;5005646;28;20703;-69
2024/03/06 16:54:17;;;;;;;3.30;3.10;;;6.60;99.90;;;;;;5007638;28;20223;-69
2024/03/06 16:56:44;;;;;;;4.93;4.53;;;6.50;99.90;;;;;;5007771;28;20236;-70
2024/03/06 16:59:11;;;;;;;3.45;3.08;;;6.40;99.90;;;;;;5001017;28;20210;-70
2024/03/06 17:01:38;;;;;;;6.85;4.25;;;6.30;99.90;;;;;;5013358;28;20269;-68
2024/03/06 17:04:05;;;;;;;3.50;2.80;;;6.30;99.90;;;;;;5003018;28;20223;-68
2024/03/06 17:06:32;;;;;;;4.10;3.80;;;6.30;99.90;;;;;;5011741;28;20214;-68
2024/03/06 17:09:00;;;;;;;3.60;3.08;;;6.20;99.90;;;;;;5018164;28;20287;-69
2024/03/06 17:11:26;;;;;;;6.90;4.15;;;6.10;99.90;;;;;;5009250;28;20224;-69
2024/03/06 17:13:53;;;;;;;3.80;3.28;;;6.10;99.90;;;;;;5015392;28;20298;-69
2024/03/06 17:16:20;;;;;;;3.63;3.35;;;6.00;99.90;;;;;;5015740;28;20334;-69
2024/03/06 17:18:47;;;;;;;3.97;3.67;;;5.90;99.90;;;;;;5025352;28;20222;-69
2024/03/06 17:21:13;;;;;;;5.72;5.18;;;5.90;99.90;;;;;;5021153;28;20690;-69
2024/03/06 17:23:40;;;;;;;4.22;3.17;;;5.80;99.90;;;;;;5020059;28;20202;-69
2024/03/06 17:26:10;;;;;;;5.90;5.15;;;5.80;99.90;;;;;;5020057;28;20208;-69
2024/03/06 17:28:39;;;;;;;8.23;4.93;;;5.80;99.90;;;;;;5028403;28;20203;-69
2024/03/06 17:31:06;;;;;;;6.22;4.32;;;5.80;99.90;;;;;;5008357;28;20240;-68
2024/03/06 17:33:33;;;;;;;8.15;4.20;;;5.80;99.90;;;;;;5024942;28;20660;-68
2024/03/06 17:36:00;;;;;;;9.00;5.32;;;5.70;99.90;;;;;;5006739;28;20227;-69
2024/03/06 17:38:27;;;;;;;5.13;3.30;;;5.70;99.90;;;;;;4999368;28;20203;-69
2024/03/06 17:40:54;;;;;;;4.25;3.45;;;5.60;99.90;;;;;;5008008;28;20239;-69
2024/03/06 17:43:22;;;;;;;3.60;2.90;;;5.60;99.90;;;;;;5007258;28;20234;-69
2024/03/06 17:45:49;;;;;;;7.05;4.25;;;5.60;99.90;;;;;;5007105;28;20771;-68
2024/03/06 17:48:16;;;;;;;3.53;3.22;;;5.50;99.90;;;;;;5007841;28;20218;-69
2024/03/06 17:50:42;;;;;;;5.43;3.08;;;5.40;99.90;;;;;;5009489;28;20219;-69
2024/03/06 17:53:09;;;;;;;6.90;3.88;;;5.30;99.90;;;;;;5009923;28;20226;-69
2024/03/06 17:55:38;;;;;;;5.78;3.55;;;5.30;99.90;;;;;;5007799;28;20231;-69
2024/03/06 17:58:05;;;;;;;3.80;2.55;;;5.30;99.90;;;;;;5007250;28;20203;-69
2024/03/06 18:00:33;;;;;;;4.20;3.90;;;5.20;99.90;;;;;;5008085;28;20215;-69